Terminal Aerodrome Forecast
Issued by NWS

Home | Current Version | Previous Version | Text Only | Print | Product List | Glossary Off
Versions: 1 2 3 4 5 6 7 8 9 10 11 12 13 14 15 16 17 18 19 20 21 22 23 24 25 26 27 28 29 30 31

265
FTUS43 KGRB 201720
TAFATW
TAF
KATW 201720Z 2018/2118 14011G20KT P6SM BKN250 WS013/16040KT
     FM202200 14014G23KT P6SM BKN200 WS013/17050KT
     FM210200 17014G23KT 4SM SHRA BR OVC035 WS017/18055KT
     FM210800 22009KT 3SM BR BKN006 PROB30 2108/2111 2SM -SHRA BR
      OVC002
     FM211200 25007KT 3SM BR BKN003
     FM211500 27007KT P6SM SCT006 BKN018
     FM211700 26008KT P6SM FEW250=

USA.gov is the U.S. government's official web portal to all federal, state and local government web resources and services.